Time;durP1;ratioP1;P1;durP2;ratioP2;P2;SDS_P1;SDS_P2;PMS_P1;PMS_P2;Temp;Humidity;BMP_temperature;BMP_pressure;BME280_temperature;BME280_humidity;BME280_pressure;Samples;Min_cycle;Max_cycle;Signal;HPM_P1;HPM_P2
2024/04/06 00:01:33;;;;;;;5.30;3.70;;;;;;;12.18;100.00;100709.52;107930;1258;72748;-77
2024/04/06 00:04:00;;;;;;;5.00;3.20;;;;;;;12.16;100.00;100714.92;107825;1259;71826;-76
2024/04/06 00:06:38;;;;;;;4.80;3.10;;;;;;;12.13;100.00;100712.23;107839;1258;62130;-78
2024/04/06 00:09:40;;;;;;;5.70;3.60;;;;;;;12.10;100.00;100710.40;107761;1258;62014;-77
2024/04/06 00:12:06;;;;;;;5.30;3.50;;;;;;;12.09;100.00;100709.28;107868;1257;74408;-77
2024/04/06 00:14:33;;;;;;;6.50;3.80;;;;;;;12.07;100.00;100709.85;107795;1259;72740;-78
2024/04/06 00:17:01;;;;;;;5.50;3.40;;;;;;;12.05;100.00;100714.78;107938;1257;73204;-78
2024/04/06 00:19:28;;;;;;;5.90;3.70;;;;;;;12.02;100.00;100721.20;107929;1257;61939;-78
2024/04/06 00:21:55;;;;;;;6.00;3.70;;;;;;;12.03;100.00;100722.76;107943;1257;61929;-78
2024/04/06 00:24:23;;;;;;;5.60;3.70;;;;;;;12.02;100.00;100720.77;107912;1257;75608;-78
2024/04/06 00:26:50;;;;;;;5.60;3.70;;;;;;;12.02;100.00;100725.28;107796;1258;72526;-78
2024/04/06 00:29:17;;;;;;;6.10;4.00;;;;;;;12.01;100.00;100724.30;107642;1258;73930;-77
2024/04/06 00:31:44;;;;;;;5.10;3.50;;;;;;;11.99;100.00;100729.80;107861;1259;62002;-78
2024/04/06 00:34:11;;;;;;;5.70;3.90;;;;;;;11.96;100.00;100731.14;107859;1258;61908;-77
2024/04/06 00:36:39;;;;;;;5.30;3.60;;;;;;;11.94;100.00;100732.95;107824;1258;76898;-78
2024/04/06 00:39:06;;;;;;;6.70;4.40;;;;;;;11.93;100.00;100734.06;107791;1260;72885;-76
2024/04/06 00:41:34;;;;;;;5.70;4.00;;;;;;;11.89;100.00;100734.80;107824;1258;72482;-77
2024/04/06 00:44:01;;;;;;;5.80;4.20;;;;;;;11.84;100.00;100740.77;107848;1257;61929;-77
2024/04/06 00:46:30;;;;;;;5.90;3.80;;;;;;;11.24;100.00;100747.71;107704;1257;62067;-78
2024/04/06 00:48:57;;;;;;;5.70;4.10;;;;;;;11.05;100.00;100745.91;107690;1260;75487;-78
2024/04/06 00:51:23;;;;;;;7.00;3.60;;;;;;;10.99;100.00;100745.55;107799;1262;71263;-77
2024/04/06 00:53:50;;;;;;;6.20;3.80;;;;;;;10.95;100.00;100749.62;107750;1259;71621;-76
2024/04/06 00:56:17;;;;;;;5.70;4.00;;;;;;;10.90;100.00;100754.87;107674;1258;61937;-77
2024/04/06 00:58:45;;;;;;;5.30;3.80;;;;;;;10.86;100.00;100755.27;107789;1257;62029;-79
2024/04/06 01:01:12;;;;;;;5.90;4.00;;;;;;;10.82;100.00;100759.39;107768;1257;73962;-76
2024/04/06 01:03:38;;;;;;;7.10;4.30;;;;;;;10.80;100.00;100760.70;107835;1258;72867;-80
2024/04/06 01:06:05;;;;;;;6.00;4.20;;;;;;;10.76;100.00;100755.60;107942;1257;72345;-78
2024/04/06 01:08:32;;;;;;;10.50;4.00;;;;;;;10.76;100.00;100758.02;107678;1259;62053;-77
2024/04/06 01:11:00;;;;;;;5.50;3.80;;;;;;;10.80;100.00;100753.61;107844;1259;61939;-77
2024/04/06 01:13:27;;;;;;;5.90;3.80;;;;;;;10.80;100.00;100757.67;107810;1259;75784;-77
2024/04/06 01:15:53;;;;;;;5.20;3.50;;;;;;;10.80;100.00;100762.05;107765;1257;71363;-78
2024/04/06 01:18:20;;;;;;;6.30;3.70;;;;;;;10.80;100.00;100759.75;107863;1257;72535;-78
2024/04/06 01:20:49;;;;;;;6.50;3.80;;;;;;;10.82;100.00;100761.58;107875;1257;61895;-76
2024/04/06 01:23:16;;;;;;;5.40;3.80;;;;;;;10.83;100.00;100763.09;107860;1257;61309;-77
2024/04/06 01:25:43;;;;;;;6.60;3.80;;;;;;;10.83;100.00;100758.77;107949;1257;75502;-77
2024/04/06 01:28:10;;;;;;;6.30;4.10;;;;;;;10.81;100.00;100760.61;107918;1257;72580;-76
2024/04/06 01:30:37;;;;;;;6.50;4.10;;;;;;;10.81;100.00;100761.58;107826;1257;72679;-75
2024/04/06 01:33:04;;;;;;;6.80;4.20;;;;;;;10.80;100.00;100758.10;107744;1260;62045;-76
2024/04/06 01:35:30;;;;;;;5.40;4.00;;;;;;;10.80;100.00;100752.48;107751;1258;61930;-77
2024/04/06 01:37:57;;;;;;;7.00;4.10;;;;;;;10.80;100.00;100752.65;107730;1262;75293;-77
2024/04/06 01:40:24;;;;;;;6.60;3.70;;;;;;;10.79;100.00;100748.52;107586;1257;72589;-77
2024/04/06 01:42:51;;;;;;;5.90;3.90;;;;;;;10.77;100.00;100744.98;107795;1258;72675;-77
2024/04/06 01:45:17;;;;;;;5.90;3.70;;;;;;;10.76;100.00;100745.36;107871;1261;60579;-77
2024/04/06 01:47:44;;;;;;;5.30;3.80;;;;;;;10.76;100.00;100737.11;107795;1259;60146;-77
2024/04/06 01:50:10;;;;;;;6.70;3.90;;;;;;;10.75;100.00;100733.90;107855;1258;72984;-77
2024/04/06 01:52:37;;;;;;;6.40;4.50;;;;;;;10.73;100.00;100733.61;107785;1259;72853;-77
2024/04/06 01:55:05;;;;;;;5.60;3.80;;;;;;;10.70;100.00;100737.16;107749;1259;72510;-77
2024/04/06 01:57:32;;;;;;;7.50;4.40;;;;;;;10.66;100.00;100740.55;107772;1258;61895;-76
2024/04/06 01:59:59;;;;;;;6.20;3.50;;;;;;;10.62;100.00;100741.89;107807;1257;60077;-76
2024/04/06 02:02:25;;;;;;;6.90;3.90;;;;;;;10.59;100.00;100740.74;107760;1261;75550;-77
2024/04/06 02:04:52;;;;;;;5.80;4.00;;;;;;;10.57;100.00;100743.95;107799;1258;73639;-77
2024/04/06 02:07:19;;;;;;;5.90;4.00;;;;;;;10.56;100.00;100736.38;107884;1257;72365;-78
2024/04/06 02:09:45;;;;;;;7.40;4.50;;;;;;;10.57;100.00;100733.10;107865;1258;60877;-77
2024/04/06 02:12:14;;;;;;;5.70;4.00;;;;;;;10.59;100.00;100732.45;107821;1262;61892;-78
2024/04/06 02:14:40;;;;;;;5.20;3.80;;;;;;;10.58;100.00;100729.73;107848;1259;75299;-80
2024/04/06 02:17:07;;;;;;;6.10;4.20;;;;;;;10.50;100.00;100731.85;107840;1259;72765;-78
2024/04/06 02:19:34;;;;;;;5.90;3.80;;;;;;;10.46;100.00;100734.20;107669;1262;71405;-77
2024/04/06 02:22:00;;;;;;;6.40;4.10;;;;;;;10.44;100.00;100732.90;107848;1257;61960;-80
2024/04/06 02:24:27;;;;;;;5.70;4.10;;;;;;;10.39;100.00;100728.48;107788;1257;61908;-77
2024/04/06 02:26:54;;;;;;;5.00;3.70;;;;;;;10.29;100.00;100728.41;107792;1258;75162;-77
2024/04/06 02:29:21;;;;;;;6.00;3.90;;;;;;;10.19;100.00;100727.73;107760;1258;72600;-77
2024/04/06 02:31:48;;;;;;;6.00;4.20;;;;;;;10.17;100.00;100729.48;107743;1258;72370;-77
2024/04/06 02:34:15;;;;;;;6.50;4.40;;;;;;;10.09;100.00;100730.46;107733;1258;62017;-76
2024/04/06 02:36:41;;;;;;;6.90;4.50;;;;;;;10.07;100.00;100732.14;107817;1261;62124;-78
2024/04/06 02:39:10;;;;;;;6.80;4.50;;;;;;;10.01;100.00;100730.20;107675;1257;75619;-78
2024/04/06 02:41:37;;;;;;;7.20;4.60;;;;;;;9.96;100.00;100726.62;107828;1258;72900;-76
2024/04/06 02:44:04;;;;;;;6.50;4.50;;;;;;;9.93;100.00;100730.36;107878;1257;71783;-76
2024/04/06 02:46:31;;;;;;;7.60;4.40;;;;;;;9.91;100.00;100734.56;107777;1258;61988;-77
2024/04/06 02:48:58;;;;;;;7.40;4.40;;;;;;;9.88;100.00;100733.25;107912;1257;60423;-76
2024/04/06 02:51:25;;;;;;;6.60;4.20;;;;;;;9.88;100.00;100738.63;107887;1258;75507;-76
2024/04/06 02:53:51;;;;;;;6.60;4.40;;;;;;;10.18;100.00;100741.08;107776;1257;72598;-78
2024/04/06 02:56:21;;;;;;;6.20;4.20;;;;;;;10.54;100.00;100741.64;107796;1260;72436;-78
2024/04/06 02:58:48;;;;;;;5.80;4.30;;;;;;;10.61;100.00;100741.99;107824;1258;62178;-77
2024/04/06 03:01:15;;;;;;;6.40;4.00;;;;;;;10.64;100.00;100742.56;107891;1260;60912;-77
2024/04/06 03:03:41;;;;;;;8.30;4.60;;;;;;;10.67;100.00;100743.44;107874;1261;75718;-77
2024/04/06 03:06:08;;;;;;;6.70;4.80;;;;;;;10.68;100.00;100743.27;107922;1260;72761;-77
2024/04/06 03:08:35;;;;;;;6.50;4.50;;;;;;;10.68;100.00;100739.50;107708;1257;72695;-76
2024/04/06 03:11:02;;;;;;;6.10;4.50;;;;;;;10.68;100.00;100738.31;107794;1261;61939;-77
2024/04/06 03:13:35;;;;;;;5.70;4.50;;;;;;;10.68;100.00;100740.83;107869;1257;61922;-78
2024/04/06 03:16:07;;;;;;;5.90;4.20;;;;;;;10.68;100.00;100738.15;107746;1260;74223;-78
2024/04/06 03:21:49;;;;;;;7.10;4.60;;;;;;;10.74;100.00;100733.51;107823;1257;71139;-77
2024/04/06 03:24:16;;;;;;;7.50;5.00;;;;;;;10.75;100.00;100733.47;107691;1257;62113;-77
2024/04/06 03:26:43;;;;;;;6.90;4.70;;;;;;;10.76;100.00;100738.50;107925;1259;62072;-77
2024/04/06 03:29:11;;;;;;;5.50;4.50;;;;;;;10.74;100.00;100735.23;107776;1262;74100;-78
2024/04/06 03:31:37;;;;;;;5.20;4.30;;;;;;;10.73;100.00;100734.58;107732;1259;72694;-82
2024/04/06 03:34:04;;;;;;;6.70;4.50;;;;;;;10.75;100.00;100729.52;107748;1258;72767;-78
2024/04/06 03:36:31;;;;;;;6.70;4.70;;;;;;;10.76;100.00;100725.14;107815;1258;62076;-76
2024/04/06 03:38:58;;;;;;;5.70;4.30;;;;;;;10.74;100.00;100727.54;107880;1259;60359;-77
2024/04/06 03:41:25;;;;;;;6.80;4.80;;;;;;;10.72;100.00;100723.17;107753;1257;75291;-76
2024/04/06 03:43:52;;;;;;;7.00;4.70;;;;;;;10.71;100.00;100725.36;107784;1260;73828;-77
2024/04/06 03:46:19;;;;;;;7.00;5.00;;;;;;;10.70;100.00;100724.56;107825;1257;71502;-76
2024/04/06 03:48:45;;;;;;;6.70;4.90;;;;;;;10.71;100.00;100722.86;107874;1260;61973;-79
2024/04/06 03:51:12;;;;;;;6.70;4.50;;;;;;;10.77;100.00;100726.06;107901;1260;62150;-77
2024/04/06 03:53:41;;;;;;;6.50;4.90;;;;;;;10.82;100.00;100718.62;107922;1258;75262;-80
2024/04/06 03:56:07;;;;;;;6.90;4.80;;;;;;;10.87;100.00;100725.25;107817;1259;72594;-77
2024/04/06 03:58:34;;;;;;;7.10;5.10;;;;;;;10.91;100.00;100722.23;107838;1260;73304;-77
2024/04/06 04:01:02;;;;;;;6.30;4.70;;;;;;;10.95;100.00;100716.85;107783;1259;62061;-76
2024/04/06 04:03:30;;;;;;;6.80;4.60;;;;;;;11.00;100.00;100717.05;107826;1259;61880;-77
2024/04/06 04:05:57;;;;;;;6.10;4.40;;;;;;;11.03;100.00;100716.83;107792;1259;75562;-77
2024/04/06 04:08:24;;;;;;;7.20;4.10;;;;;;;11.02;100.00;100720.02;107798;1257;72588;-78
2024/04/06 04:10:51;;;;;;;6.20;4.70;;;;;;;11.02;100.00;100717.07;107809;1261;72464;-77
2024/04/06 04:13:19;;;;;;;6.20;4.30;;;;;;;11.04;100.00;100713.30;107777;1259;60938;-78
2024/04/06 04:15:46;;;;;;;6.30;4.20;;;;;;;11.06;100.00;100711.77;107703;1262;62108;-77
2024/04/06 04:18:13;;;;;;;7.90;4.40;;;;;;;11.04;100.00;100712.72;107756;1259;74197;-78
2024/04/06 04:20:40;;;;;;;6.10;4.00;;;;;;;10.98;100.00;100710.62;107803;1257;72645;-77
2024/04/06 04:23:07;;;;;;;5.80;4.20;;;;;;;10.93;100.00;100714.76;107829;1259;73106;-80
2024/04/06 04:25:33;;;;;;;4.80;3.80;;;;;;;10.95;100.00;100712.69;107805;1262;62038;-78
2024/04/06 04:28:00;;;;;;;5.60;4.30;;;;;;;11.02;100.00;100712.10;107832;1260;61261;-77
2024/04/06 04:30:27;;;;;;;5.60;4.30;;;;;;;11.05;100.00;100710.25;107878;1259;74208;-77
2024/04/06 04:32:54;;;;;;;6.30;4.00;;;;;;;11.08;100.00;100710.05;107804;1259;72794;-77
2024/04/06 04:35:21;;;;;;;5.80;4.00;;;;;;;11.09;100.00;100712.15;107823;1260;72469;-77
2024/04/06 04:37:48;;;;;;;6.00;4.40;;;;;;;11.13;100.00;100716.83;107775;1258;62050;-77
2024/04/06 04:40:15;;;;;;;6.30;4.20;;;;;;;11.20;100.00;100717.80;107847;1259;61899;-77
2024/04/06 04:42:42;;;;;;;6.90;3.90;;;;;;;11.27;100.00;100714.79;107870;1258;75379;-77
2024/04/06 04:45:11;;;;;;;5.20;4.10;;;;;;;11.36;100.00;100717.14;107909;1261;72304;-77
2024/04/06 04:47:39;;;;;;;6.40;4.80;;;;;;;11.44;100.00;100711.91;107805;1261;72553;-77
2024/04/06 04:50:08;;;;;;;9.10;4.60;;;;;;;11.54;100.00;100713.52;107845;1258;62007;-78
2024/04/06 04:52:36;;;;;;;5.80;3.90;;;;;;;11.64;100.00;100712.92;107798;1260;60993;-77
2024/04/06 04:55:04;;;;;;;6.10;4.70;;;;;;;11.74;100.00;100709.49;107710;1258;74295;-77
2024/04/06 04:57:32;;;;;;;6.70;4.80;;;;;;;11.82;100.00;100706.76;107795;1258;72645;-78
2024/04/06 04:59:58;;;;;;;5.50;4.20;;;;;;;11.88;100.00;100710.23;107800;1260;72601;-81
2024/04/06 05:02:26;;;;;;;6.70;4.20;;;;;;;11.91;100.00;100710.12;107846;1258;62044;-78
2024/04/06 05:04:53;;;;;;;9.20;4.50;;;;;;;11.91;100.00;100711.79;107596;1257;61989;-77
2024/04/06 05:07:21;;;;;;;8.00;4.40;;;;;;;11.95;100.00;100715.11;107835;1259;73210;-77
2024/04/06 05:09:48;;;;;;;7.50;3.90;;;;;;;12.00;100.00;100713.48;107766;1258;72082;-77
2024/04/06 05:12:14;;;;;;;5.50;4.00;;;;;;;11.99;100.00;100711.50;107800;1259;72516;-77
2024/04/06 05:14:43;;;;;;;6.40;4.30;;;;;;;12.02;100.00;100705.40;107730;1259;62031;-77
2024/04/06 05:17:10;;;;;;;6.20;4.30;;;;;;;12.09;100.00;100703.70;107830;1260;61909;-77
2024/04/06 05:19:37;;;;;;;7.90;4.30;;;;;;;12.13;100.00;100705.92;107856;1260;75534;-77
2024/04/06 05:22:04;;;;;;;5.80;3.70;;;;;;;12.17;100.00;100702.95;107840;1257;72556;-77
2024/04/06 05:24:31;;;;;;;5.80;4.30;;;;;;;12.20;100.00;100706.33;107642;1257;71470;-78
2024/04/06 05:26:58;;;;;;;7.60;4.50;;;;;;;12.27;100.00;100701.73;107798;1257;62030;-77
2024/04/06 05:29:25;;;;;;;5.10;4.00;;;;;;;12.38;100.00;100701.64;107924;1260;61908;-76
2024/04/06 05:31:56;;;;;;;5.80;4.30;;;;;;;12.51;100.00;100700.05;107923;1260;74192;-77
2024/04/06 05:34:23;;;;;;;5.90;4.10;;;;;;;12.65;100.00;100706.34;107785;1260;72752;-76
2024/04/06 05:36:53;;;;;;;5.50;4.00;;;;;;;12.76;100.00;100701.69;107885;1257;72695;-76
2024/04/06 05:39:19;;;;;;;6.50;4.70;;;;;;;12.82;100.00;100698.79;107850;1260;62005;-78
2024/04/06 05:41:47;;;;;;;5.40;4.20;;;;;;;12.91;100.00;100705.08;107857;1257;61910;-76
2024/04/06 05:44:14;;;;;;;5.80;4.40;;;;;;;12.99;100.00;100706.52;107887;1260;74269;-76
2024/04/06 05:46:41;;;;;;;5.90;4.50;;;;;;;13.06;100.00;100704.89;107704;1260;72677;-78
2024/04/06 05:49:09;;;;;;;5.70;4.10;;;;;;;13.07;100.00;100702.59;107798;1258;72553;-77
2024/04/06 05:51:36;;;;;;;5.10;4.20;;;;;;;13.11;100.00;100701.02;107601;1260;62140;-78
2024/04/06 05:54:03;;;;;;;6.40;4.80;;;;;;;13.16;100.00;100702.52;107900;1258;61939;-79
2024/04/06 05:56:31;;;;;;;7.40;4.50;;;;;;;13.16;100.00;100700.96;107907;1261;75512;-77
2024/04/06 05:58:57;;;;;;;6.40;4.70;;;;;;;13.14;100.00;100704.14;107754;1258;71783;-79
2024/04/06 06:01:25;;;;;;;5.60;4.70;;;;;;;13.17;100.00;100703.65;107885;1260;72614;-78
2024/04/06 06:03:52;;;;;;;6.00;4.50;;;;;;;13.21;100.00;100705.89;107688;1260;61858;-80
2024/04/06 06:06:20;;;;;;;6.60;4.80;;;;;;;13.24;100.00;100696.63;107783;1259;61938;-77
2024/04/06 06:08:49;;;;;;;6.00;4.40;;;;;;;13.27;100.00;100694.98;107784;1260;74039;-80
2024/04/06 06:11:17;;;;;;;6.70;4.40;;;;;;;13.29;100.00;100696.95;107770;1261;71306;-77
2024/04/06 06:13:46;;;;;;;5.90;4.30;;;;;;;13.35;100.00;100698.60;107734;1259;72808;-75
2024/04/06 06:16:13;;;;;;;6.60;4.80;;;;;;;13.40;100.00;100693.66;107734;1259;62056;-76
2024/04/06 06:18:40;;;;;;;6.60;4.20;;;;;;;13.47;100.00;100693.73;107768;1260;62262;-80
2024/04/06 06:21:07;;;;;;;5.90;4.30;;;;;;;13.53;100.00;100698.40;107809;1259;74500;-77
2024/04/06 06:23:33;;;;;;;4.90;3.90;;;;;;;13.55;100.00;100694.64;107785;1258;72905;-78
2024/04/06 06:26:00;;;;;;;5.60;3.90;;;;;;;13.54;100.00;100692.81;107860;1261;72365;-78
2024/04/06 06:28:27;;;;;;;6.70;4.70;;;;;;;13.58;100.00;100700.05;107676;1260;62198;-78
2024/04/06 06:30:54;;;;;;;5.70;4.00;;;;;;;13.67;100.00;100697.28;107740;1260;60308;-79
2024/04/06 06:33:21;;;;;;;8.00;4.20;;;;;;;13.78;100.00;100694.98;107760;1258;75461;-79
2024/04/06 06:35:52;;;;;;;6.60;3.70;;;;;;;13.90;100.00;100692.46;107718;1260;71720;-76
2024/04/06 06:38:22;;;;;;;5.70;3.90;;;;;;;14.03;100.00;100689.98;107773;1259;72700;-77
2024/04/06 06:40:51;;;;;;;5.10;4.00;;;;;;;14.17;100.00;100680.77;107694;1258;62002;-77
2024/04/06 06:43:20;;;;;;;4.80;3.40;;;;;;;14.32;100.00;100684.50;107887;1257;61923;-78
2024/04/06 06:45:48;;;;;;;5.20;3.70;;;;;;;14.43;100.00;100681.63;107840;1262;74341;-76
2024/04/06 06:48:15;;;;;;;4.80;3.20;;;;;;;14.55;100.00;100676.73;107542;1257;72773;-77
2024/04/06 06:50:41;;;;;;;4.70;3.10;;;;;;;14.67;100.00;100672.09;107741;1259;72470;-78
2024/04/06 06:53:08;;;;;;;6.10;3.20;;;;;;;14.80;100.00;100666.05;107718;1258;61973;-77
2024/04/06 06:55:36;;;;;;;6.50;3.20;;;;;;;14.92;100.00;100665.52;107745;1258;60985;-76
2024/04/06 06:58:03;;;;;;;5.20;3.40;;;;;;;15.05;100.00;100665.08;107770;1261;75414;-76
2024/04/06 07:00:30;;;;;;;5.10;3.40;;;;;;;15.20;100.00;100662.66;107542;1259;381760;-78
2024/04/06 07:03:06;;;;;;;5.00;2.90;;;;;;;15.36;100.00;100660.77;107571;1262;72418;-78
2024/04/06 07:05:36;;;;;;;4.30;2.50;;;;;;;15.47;99.99;100653.81;107676;1262;61909;-78
2024/04/06 07:08:04;;;;;;;4.30;2.70;;;;;;;15.57;97.67;100650.13;107722;1258;62554;-77
2024/04/06 07:10:38;;;;;;;4.70;2.60;;;;;;;15.67;95.12;100644.55;107651;1260;76739;-77
2024/04/06 07:13:04;;;;;;;4.10;2.60;;;;;;;15.77;92.48;100641.04;107811;1261;71371;-79
2024/04/06 07:15:34;;;;;;;4.40;2.90;;;;;;;15.85;90.45;100636.35;107770;1262;73014;-77
2024/04/06 07:18:01;;;;;;;3.80;2.60;;;;;;;15.92;88.91;100636.64;107736;1257;62019;-80
2024/04/06 07:20:30;;;;;;;4.20;2.70;;;;;;;15.98;87.70;100630.94;107781;1260;62114;-79
2024/04/06 07:23:00;;;;;;;4.60;2.60;;;;;;;16.07;87.39;100628.55;107856;1261;74378;-78
2024/04/06 07:25:27;;;;;;;4.50;2.60;;;;;;;16.20;86.31;100623.25;107797;1258;72854;-78
2024/04/06 07:27:54;;;;;;;4.70;2.90;;;;;;;16.29;84.18;100623.76;107776;1257;71974;-78
2024/04/06 07:30:20;;;;;;;4.90;3.00;;;;;;;16.37;83.08;100618.77;107867;1260;62021;-77
2024/04/06 07:32:47;;;;;;;4.00;2.30;;;;;;;16.44;80.53;100615.54;107777;1258;61942;-77
2024/04/06 07:35:14;;;;;;;3.90;2.10;;;;;;;16.51;79.02;100608.58;107916;1261;75286;-78
2024/04/06 07:37:41;;;;;;;3.40;2.10;;;;;;;16.57;77.54;100604.86;107778;1257;74040;-77
2024/04/06 07:40:09;;;;;;;4.80;2.20;;;;;;;16.67;77.76;100600.64;107785;1258;71548;-77
2024/04/06 07:42:36;;;;;;;3.60;2.00;;;;;;;16.84;77.52;100593.56;107770;1261;60619;-78
2024/04/06 07:45:03;;;;;;;4.10;2.00;;;;;;;17.01;76.49;100591.54;107891;1260;61872;-78
2024/04/06 07:47:33;;;;;;;3.70;2.10;;;;;;;17.16;75.62;100586.55;107874;1257;75451;-79
2024/04/06 07:49:59;;;;;;;3.10;1.90;;;;;;;17.30;75.11;100586.69;107891;1258;72520;-79
2024/04/06 07:52:28;;;;;;;4.00;2.00;;;;;;;17.44;73.96;100581.06;107866;1257;70248;-77
2024/04/06 07:54:55;;;;;;;2.90;1.80;;;;;;;17.59;72.23;100580.38;107882;1260;63537;-82
2024/04/06 07:57:22;;;;;;;4.10;1.90;;;;;;;17.74;71.38;100577.89;107956;1257;60847;-77
2024/04/06 07:59:48;;;;;;;3.00;1.90;;;;;;;17.89;70.66;100571.90;107907;1258;73994;-77
2024/04/06 08:02:19;;;;;;;4.40;2.40;;;;;;;18.03;69.84;100567.79;107804;1259;71406;-77
2024/04/06 08:04:47;;;;;;;4.10;2.40;;;;;;;18.13;67.57;100563.88;107735;1262;72445;-77
2024/04/06 08:07:14;;;;;;;3.70;2.10;;;;;;;18.18;65.87;100559.49;107756;1260;62024;-78
2024/04/06 08:09:41;;;;;;;4.60;2.20;;;;;;;18.25;64.98;100559.33;107771;1259;61880;-77
2024/04/06 08:12:08;;;;;;;3.10;1.80;;;;;;;18.32;63.62;100550.93;107767;1259;76538;-77
2024/04/06 08:14:37;;;;;;;3.00;2.00;;;;;;;18.36;60.62;100555.52;107727;1261;73812;-78
2024/04/06 08:17:05;;;;;;;4.70;2.20;;;;;;;18.36;60.26;100551.64;107724;1260;73868;-77
2024/04/06 08:19:33;;;;;;;4.00;1.80;;;;;;;18.42;60.03;100547.65;107754;1259;62098;-76
2024/04/06 08:22:02;;;;;;;3.10;1.80;;;;;;;18.52;59.95;100543.39;107828;1257;61940;-78
2024/04/06 08:24:30;;;;;;;3.70;1.80;;;;;;;18.65;59.27;100539.80;107730;1259;75582;-77
2024/04/06 08:26:57;;;;;;;4.50;1.80;;;;;;;18.73;57.84;100538.95;107758;1260;73915;-78
2024/04/06 08:29:23;;;;;;;4.30;2.10;;;;;;;18.80;57.22;100534.99;107841;1258;73702;-77
2024/04/06 08:31:50;;;;;;;3.70;1.80;;;;;;;18.89;56.82;100531.48;107868;1257;62007;-78
2024/04/06 08:34:17;;;;;;;5.60;2.20;;;;;;;19.01;55.85;100526.92;107824;1258;61963;-79
2024/04/06 08:36:46;;;;;;;3.20;2.20;;;;;;;19.11;54.48;100526.00;107800;1259;76464;-77
2024/04/06 08:39:12;;;;;;;5.00;1.90;;;;;;;19.18;52.38;100521.46;107753;1260;72641;-78
2024/04/06 08:41:40;;;;;;;3.40;1.80;;;;;;;19.24;50.77;100521.25;107717;1261;72671;-79
2024/04/06 08:44:09;;;;;;;5.20;1.60;;;;;;;19.24;50.52;100517.63;107762;1257;62019;-78
2024/04/06 08:46:36;;;;;;;3.70;1.70;;;;;;;19.35;50.69;100508.94;107674;1260;62044;-79
2024/04/06 08:49:02;;;;;;;2.70;1.30;;;;;;;19.52;50.33;100505.77;107639;1257;75417;-79
2024/04/06 08:51:30;;;;;;;3.50;1.40;;;;;;;19.64;47.92;100508.66;107675;1260;72673;-78
2024/04/06 08:53:57;;;;;;;4.10;1.40;;;;;;;19.70;48.35;100505.29;107789;1262;73760;-78
2024/04/06 08:56:23;;;;;;;5.10;1.50;;;;;;;19.84;47.60;100503.98;107667;1257;61903;-78
2024/04/06 08:58:50;;;;;;;2.70;1.30;;;;;;;20.02;47.66;100503.67;107752;1260;61932;-80
2024/04/06 09:01:17;;;;;;;4.50;1.60;;;;;;;20.23;46.18;100499.23;107638;1264;73612;-77
2024/04/06 09:03:44;;;;;;;3.80;1.40;;;;;;;20.36;43.88;100496.59;107622;1260;73120;-78
2024/04/06 09:06:18;;;;;;;3.70;1.40;;;;;;;20.42;43.23;100494.31;107831;1262;72821;-79
2024/04/06 09:08:46;;;;;;;2.60;1.20;;;;;;;20.45;43.39;100492.83;107707;1260;61918;-79
2024/04/06 09:11:13;;;;;;;3.60;1.40;;;;;;;20.43;42.72;100490.90;107859;1263;61928;-80
2024/04/06 09:13:42;;;;;;;2.40;1.10;;;;;;;20.74;42.48;100487.50;107841;1257;75429;-80
2024/04/06 09:16:09;;;;;;;3.80;1.50;;;;;;;20.68;42.75;100485.42;107869;1257;72829;-80
2024/04/06 09:18:36;;;;;;;3.50;1.30;;;;;;;20.74;41.96;100484.51;107881;1257;73902;-81
2024/04/06 09:21:06;;;;;;;3.90;1.50;;;;;;;21.28;41.51;100483.64;107794;1260;61243;-79
2024/04/06 09:23:32;;;;;;;3.30;1.10;;;;;;;21.22;41.45;100480.08;107724;1260;61892;-81
2024/04/06 09:26:00;;;;;;;3.00;1.20;;;;;;;21.05;40.88;100473.75;107852;1260;75292;-79
2024/04/06 09:28:27;;;;;;;4.10;1.20;;;;;;;21.08;40.76;100471.16;108327;1261;73896;-79
2024/04/06 09:30:58;;;;;;;2.50;1.10;;;;;;;21.08;40.64;100470.92;107818;1261;73816;-77
2024/04/06 09:33:26;;;;;;;3.70;1.50;;;;;;;21.06;40.33;100471.48;107845;1257;61786;-78
2024/04/06 09:35:53;;;;;;;3.40;1.60;;;;;;;21.03;40.22;100470.96;107917;1259;61233;-79
2024/04/06 09:38:20;;;;;;;4.10;1.80;;;;;;;20.98;40.35;100468.70;107807;1258;75156;-79
2024/04/06 09:40:50;;;;;;;3.90;1.40;;;;;;;20.91;40.16;100472.35;107781;1262;73936;-80
2024/04/06 09:43:18;;;;;;;3.30;1.10;;;;;;;20.74;39.97;100467.30;107605;1260;72762;-77
2024/04/06 09:45:45;;;;;;;4.20;1.50;;;;;;;20.62;40.12;100467.26;107671;1261;62078;-79
2024/04/06 09:48:12;;;;;;;4.80;1.70;;;;;;;20.53;39.42;100456.02;107660;1258;62034;-78
2024/04/06 09:50:39;;;;;;;3.40;1.20;;;;;;;20.47;38.89;100457.72;107807;1259;76592;-80
2024/04/06 09:53:06;;;;;;;3.40;1.30;;;;;;;20.44;38.86;100454.83;107825;1258;73046;-79
2024/04/06 09:55:37;;;;;;;5.60;1.60;;;;;;;20.47;39.54;100454.78;107867;1261;73848;-79
2024/04/06 09:58:05;;;;;;;3.10;1.40;;;;;;;20.55;38.79;100454.84;107731;1259;61939;-80
2024/04/06 10:00:33;;;;;;;3.10;1.40;;;;;;;20.62;39.08;100448.52;107753;1262;61023;-79
2024/04/06 10:03:00;;;;;;;3.20;1.50;;;;;;;20.72;39.38;100446.80;107914;1260;74528;-80
2024/04/06 10:05:44;;;;;;;3.90;1.50;;;;;;;20.78;39.45;100448.23;107967;1257;72586;-80
2024/04/06 10:08:11;;;;;;;2.90;1.40;;;;;;;20.86;39.27;100443.95;107825;1258;72396;-79
2024/04/06 10:10:45;;;;;;;2.70;1.40;;;;;;;20.88;38.38;100440.83;107856;1257;61883;-79
2024/04/06 10:13:19;;;;;;;3.60;1.40;;;;;;;20.89;38.10;100438.38;107888;1257;62040;-80
2024/04/06 10:15:46;;;;;;;3.90;1.40;;;;;;;20.88;37.56;100439.18;107868;1261;76011;-79
2024/04/06 10:18:14;;;;;;;2.60;1.20;;;;;;;20.80;37.74;100433.80;107859;1257;71655;-79
2024/04/06 10:20:42;;;;;;;3.00;1.40;;;;;;;20.76;38.39;100427.56;107571;1265;72882;-80
2024/04/06 10:23:12;;;;;;;1.90;1.10;;;;;;;20.79;38.63;100425.91;107740;1257;61068;-78
2024/04/06 10:25:40;;;;;;;4.00;1.50;;;;;;;20.86;38.36;100419.90;107957;1258;60840;-79
2024/04/06 10:28:08;;;;;;;3.50;1.40;;;;;;;20.88;38.62;100419.41;107714;1261;75599;-80
2024/04/06 10:30:37;;;;;;;3.60;1.20;;;;;;;20.90;38.93;100418.64;107751;1263;71679;-79
2024/04/06 10:33:04;;;;;;;2.90;1.40;;;;;;;20.89;39.13;100415.61;107721;1257;73811;-79
2024/04/06 10:35:31;;;;;;;3.90;1.70;;;;;;;20.88;39.16;100417.48;107811;1257;62016;-79
2024/04/06 10:37:58;;;;;;;3.20;1.70;;;;;;;20.88;39.59;100410.57;107670;1257;62015;-79
2024/04/06 10:40:27;;;;;;;4.00;2.10;;;;;;;20.91;39.30;100409.45;107825;1261;74520;-79
2024/04/06 10:42:54;;;;;;;5.80;2.50;;;;;;;20.89;38.93;100407.30;107779;1261;73072;-79
2024/04/06 10:45:21;;;;;;;4.50;2.00;;;;;;;20.77;39.02;100404.73;107758;1258;73913;-81
2024/04/06 10:47:48;;;;;;;4.70;2.60;;;;;;;20.68;39.28;100400.73;107754;1260;62027;-78
2024/04/06 10:50:15;;;;;;;3.10;1.30;;;;;;;20.69;39.45;100401.26;107612;1259;61955;-79
2024/04/06 10:52:42;;;;;;;3.10;1.30;;;;;;;20.83;39.47;100401.27;107722;1257;76605;-79
2024/04/06 10:55:10;;;;;;;4.60;1.50;;;;;;;20.93;39.09;100398.84;107806;1257;73851;-78
2024/04/06 10:57:37;;;;;;;3.40;1.40;;;;;;;21.05;38.28;100395.33;107878;1257;72600;-79
2024/04/06 11:00:09;;;;;;;2.90;1.20;;;;;;;21.12;37.55;100391.31;107778;1257;62040;-78
2024/04/06 11:02:37;;;;;;;3.20;1.20;;;;;;;21.07;36.78;100385.70;107853;1258;61867;-80
2024/04/06 11:05:05;;;;;;;3.30;1.20;;;;;;;21.17;37.49;100383.35;107823;1258;74129;-79
2024/04/06 11:07:32;;;;;;;3.20;1.40;;;;;;;21.30;37.41;100380.55;107760;1263;73069;-77
2024/04/06 11:09:59;;;;;;;2.90;1.30;;;;;;;21.49;37.55;100374.52;107880;1258;71733;-77
2024/04/06 11:12:29;;;;;;;3.60;1.60;;;;;;;21.66;36.89;100374.77;107690;1257;62085;-79
2024/04/06 11:15:00;;;;;;;3.30;1.20;;;;;;;21.70;36.93;100369.20;107886;1258;61901;-82
2024/04/06 11:17:30;;;;;;;2.50;1.20;;;;;;;21.65;36.76;100369.73;107872;1257;74334;-77